• Join FlightAware (Why Join?)
  • Login
  • US Flag 
02:56PM EDT


 

Airport Tracker/Info


-or-


 

Live Flight TrackerFlight Track Log ✈ N75ZM ✈ 12-Jun-2013 ✈ KJAX - KPDK

Flight Track Log - Related Links

Times and Time Zones

All times are in EDT time to prevent confusion due to time zone crossing. See the N75ZM flight status page for this flight to view local times or setup timezone preferences in your user account.

Time Position Orientation Groundspeed Altitude Reporting Facility
EDT Latitude Longitude Course Direction KTS MPH feet Rate Location/Type
08:17AM 30.4864 -81.6897 43° Northeast 83 96 500  Level Jacksonville Center
08:19AM 30.5133 -81.6606 43° Northeast 130 150 2,000 780 Climbing Jacksonville Center
08:20AM 30.5467 -81.6792 334° Northwest 133 153 2,700 720 Climbing Jacksonville Center
08:21AM 30.5803 -81.6981 334° Northwest 139 160 3,500 720 Climbing Jacksonville Center
08:22AM 30.6161 -81.7169 336° Northwest 131 151 4,200 660 Climbing Jacksonville Center
08:23AM 30.6411 -81.7311 334° Northwest 133 153 4,800 600 Climbing Jacksonville Center
08:24AM 30.6747 -81.7478 337° Northwest 138 159 5,300 480 Climbing Jacksonville Center
08:25AM 30.7147 -81.7714 333° Northwest 150 173 5,800 480 Climbing Jacksonville Center
08:26AM 30.7503 -81.7928 333° Northwest 150 173 6,300 420 Climbing Jacksonville Center
08:27AM 30.7881 -81.8142 334° Northwest 150 173 6,700 420 Climbing Jacksonville Center
08:28AM 30.8258 -81.8331 337° Northwest 150 173 7,200 480 Climbing Jacksonville Center
08:29AM 30.8636 -81.8567 332° Northwest 150 173 7,700 360 Climbing Jacksonville Center
08:30AM 30.8908 -81.8708 336° Northwest 144 166 8,000 180 Climbing Jacksonville Center
08:31AM 30.9392 -81.8972 335° Northwest 144 166 8,100  Climbing Jacksonville Center
08:32AM 30.9811 -81.9208 334° Northwest 155 178 8,000  Descending Jacksonville Center
08:33AM 31.0208 -81.9447 333° Northwest 155 178 8,100  Climbing Jacksonville Center
08:34AM 31.0608 -81.9686 333° Northwest 155 178 8,100  Level Jacksonville Center
08:35AM 31.1047 -81.9900 337° Northwest 155 178 8,100  Level Jacksonville Center
08:36AM 31.1444 -82.0114 335° Northwest 155 178 8,100  Level Jacksonville Center
08:37AM 31.1844 -82.0378 331° Northwest 155 178 8,100  Level Jacksonville Center
08:38AM 31.2242 -82.0642 330° Northwest 155 178 8,100  Level Jacksonville Center
08:39AM 31.2661 -82.0856 336° Northwest 155 178 8,100  Level Jacksonville Center
08:40AM 31.3039 -82.1072 334° Northwest 155 178 8,100  Level Jacksonville Center
08:41AM 31.3417 -82.1289 334° Northwest 155 178 8,100  Level Jacksonville Center
08:42AM 31.3856 -82.1503 337° Northwest 160 184 8,100 -60 Level Jacksonville Center
08:43AM 31.4192 -82.1669 337° Northwest 155 178 8,000  Descending Jacksonville Center
08:44AM 31.4589 -82.1936 330° Northwest 155 178 8,100  Climbing Jacksonville Center
08:45AM 31.5028 -82.2175 335° Northwest 155 178 8,100  Level Jacksonville Center
08:46AM 31.5406 -82.2417 331° Northwest 155 178 8,100  Level Jacksonville Center
08:47AM 31.5783 -82.2683 329° Northwest 160 184 8,100  Level Jacksonville Center
08:48AM 31.6119 -82.2950 326° Northwest 160 184 8,100  Level Jacksonville Center
08:49AM 31.6494 -82.3189 332° Northwest 160 184 8,100  Level Jacksonville Center
08:50AM 31.6872 -82.3481 327° Northwest 166 191 8,100  Level Jacksonville Center
08:51AM 31.7250 -82.3747 329° Northwest 161 185 8,100  Level Jacksonville Center
08:52AM 31.7625 -82.4014 329° Northwest 161 185 8,100  Level Jacksonville Center
08:53AM 31.7983 -82.4306 325° Northwest 161 185 8,100  Level Jacksonville Center
08:54AM 31.8400 -82.4572 331° Northwest 161 185 8,100  Level Jacksonville Center
08:55AM 31.8756 -82.4839 328° Northwest 166 191 8,100  Level Jacksonville Center
08:56AM 31.9133 -82.5108 329° Northwest 161 185 8,100  Level Jacksonville Center
08:57AM 31.9531 -82.5375 330° Northwest 161 185 8,100  Level Jacksonville Center
08:58AM 31.9928 -82.5644 330° Northwest 161 185 8,100  Level Jacksonville Center
08:59AM 32.0325 -82.5911 330° Northwest 161 185 8,100  Level Jacksonville Center
09:00AM 32.0681 -82.6206 325° Northwest 161 185 8,100  Level Jacksonville Center
09:01AM 32.1078 -82.6472 330° Northwest 161 185 8,100  Level Jacksonville Center
09:02AM 32.1667 -82.7000 323° Northwest 166 191 8,100  Level Atlanta TRACON
09:03AM 32.2167 -82.7167 344° North 163 188 8,100  Level Atlanta TRACON
09:04AM 32.2500 -82.7500 320° Northwest 163 188 8,100  Level Atlanta TRACON
09:05AM 32.2833 -82.7833 320° Northwest 165 190 8,100  Level Atlanta TRACON
09:06AM 32.3333 -82.8000 344° North 166 191 8,100  Level Atlanta TRACON
09:07AM 32.3667 -82.8333 320° Northwest 162 186 8,100  Level Atlanta TRACON
09:08AM 32.4000 -82.8667 320° Northwest 167 192 8,100  Level Atlanta TRACON
09:09AM 32.4500 -82.8833 344° North 166 191 8,100  Level Atlanta TRACON
09:10AM 32.4833 -82.9167 320° Northwest 162 186 8,100  Level Atlanta TRACON
09:11AM 32.5167 -82.9500 320° Northwest 163 188 8,100  Level Atlanta TRACON
09:12AM 32.5667 -82.9833 331° Northwest 162 186 8,100  Level Atlanta TRACON
09:13AM 32.6000 -83.0167 320° Northwest 161 185 8,100  Level Atlanta TRACON
09:14AM 32.6333 -83.0333 337° Northwest 160 184 8,100  Level Atlanta TRACON
09:15AM 32.6667 -83.0667 320° Northwest 159 183 8,100  Level Atlanta TRACON
09:16AM 32.7000 -83.1000 320° Northwest 160 184 8,100  Level Atlanta TRACON
09:17AM 32.7333 -83.1333 320° Northwest 160 184 8,100  Level Atlanta TRACON
09:18AM 32.7833 -83.1667 331° Northwest 161 185 8,100 -180 Level Atlanta TRACON
09:19AM 32.8167 -83.1833 337° Northwest 166 191 7,800 -300 Descending Atlanta TRACON
09:20AM 32.8500 -83.2167 320° Northwest 173 199 7,500 -360 Descending Atlanta TRACON
09:21AM 32.8833 -83.2500 320° Northwest 171 197 7,200 -420 Descending Atlanta TRACON
09:22AM 32.9333 -83.2833 331° Northwest 176 203 6,700 -420 Descending Atlanta TRACON
09:23AM 32.9667 -83.3167 320° Northwest 172 198 6,400 -360 Descending Atlanta TRACON
09:24AM 33.0000 -83.3500 320° Northwest 171 197 6,100 -180 Descending Atlanta TRACON
09:25AM 33.0500 -83.3833 331° Northwest 163 188 6,100  Level Atlanta TRACON
09:26AM 33.0833 -83.4000 337° Northwest 161 185 6,100  Level Atlanta TRACON
09:27AM 33.1167 -83.4333 320° Northwest 163 188 6,100  Level Atlanta TRACON
09:28AM 33.1500 -83.4667 320° Northwest 159 183 6,100  Level Atlanta TRACON
09:29AM 33.1833 -83.5000 320° Northwest 160 184 6,100  Level Atlanta TRACON
09:30AM 33.2167 -83.5333 320° Northwest 162 186 6,100  Level Atlanta TRACON
09:31AM 33.2667 -83.5667 331° Northwest 163 188 6,100  Level Atlanta TRACON
09:32AM 33.3000 -83.5833 337° Northwest 158 182 6,100  Level Atlanta TRACON
09:33AM 33.3333 -83.6167 320° Northwest 160 184 6,100  Level Atlanta TRACON
09:34AM 33.3667 -83.6500 320° Northwest 156 180 6,100  Level Atlanta TRACON
09:35AM 33.4000 -83.6833 320° Northwest 158 182 6,100  Level Atlanta TRACON
09:36AM 33.4500 -83.7167 331° Northwest 158 182 6,100  Level Atlanta TRACON
09:37AM 33.4833 -83.7333 337° Northwest 161 185 6,100 -300 Level Atlanta TRACON
09:38AM 33.5167 -83.7833 309° West 176 203 5,500 -540 Descending Atlanta TRACON
09:39AM 33.5667 -83.8000 344° North 178 205 5,000 -540 Descending Atlanta TRACON
09:40AM 33.6167 -83.8167 344° North 177 204 4,500 -480 Descending Atlanta TRACON
09:41AM 33.6667 -83.8167 360° North 170 196 4,100 -240 Descending Atlanta TRACON
09:42AM 33.7000 -83.8333 337° Northwest 165 190 4,100  Level Atlanta TRACON
09:43AM 33.7333 -83.8667 320° Northwest 155 178 4,100  Level Atlanta TRACON
09:44AM 33.7667 -83.9000 320° Northwest 150 173 4,100  Level Atlanta TRACON
09:45AM 33.8000 -83.9333 320° Northwest 154 177 4,100 -180 Level Atlanta TRACON
09:46AM 33.8167 -83.9833 292° West 165 190 3,800 -420 Descending Atlanta TRACON
09:47AM 33.8333 -84.0333 292° West 169 194 3,300 -360 Descending Atlanta TRACON
09:48AM 33.8500 -84.0833 292° West 163 188 3,100 -120 Descending Atlanta TRACON
09:49AM 33.8667 -84.1333 292° West 155 178 3,100 -120 Level Atlanta TRACON
09:50AM 33.8667 -84.1833 270° West 146 168 2,900 -360 Descending Atlanta TRACON
09:51AM 33.8833 -84.2167 301° West 130 150 2,400 -480 Descending Atlanta TRACON
09:52AM 33.9000 -84.2500 301° West 106 122 2,000 -420 Descending Atlanta TRACON
09:53AM 33.9000 -84.2833 270° West 108 124 1,700 -360 Descending Atlanta TRACON
09:55AM 33.8667 -84.3000 270° West  Level FlightAware Approximate
10:02AM 33.8756 -84.3020 270° West  Level Estimated
10:03AM 33.8756 -84.3020 270° West  Level Estimated